Terminal Aerodrome Forecast
Issued by NWS Wilmington, OH

Current Version | Previous Version | Text Only | Print | Product List | Glossary Off
Versions: 1 2 3 4 5 6 7 8 9 10 11 12 13 14 15 16 17 18 19 20 21 22

000
FTUS41 KILN 191720
TAFCVG
TAF
KCVG 191720Z 1918/2024 33012KT P6SM SCT025 OVC035
      TEMPO 1918/1919 BKN025
     FM192200 33010KT P6SM SCT040
     FM200200 34006KT P6SM SKC
     FM201500 01006KT P6SM SKC=

USA.gov is the U.S. government's official web portal to all federal, state and local government web resources and services.